Lær å fly hos oss!

Oslo Flyveklubb har i mange år utdannet flygere til privatflygersetifikat PPL(A). Skolen har godkjenning for å drive utdanning til teoriundervisning til PPL(A), privatflygersertifikat PPL (A) og mørkeflyging.

Gi bort en flytur i gave

På en introduksjonstur vil kandidaten være med på forberedelser til, og gjennomføring av en flytur på en times varighet med en av våre instruktører.

Hvor vi holder til?

Flyplassen ligger i Lillestrøm 10 minutter med tog fra Oslo. Følg storgata fra Lillestrøms sentrum så vill man se plassen på venstre side.
3 days ago
Start støtteundervisning

Undervisning vil bli holdt onsdager fra klokken 19:00-21:00 i klubbens lokal på Kjeller. Vi kommer dessuten holde en Refresh-kurs søndag den 11 mars da eksamensdato for PPL-A er den 16 mars. Det er ... See more

Undervisning vil bli holdt onsdager fra klokken 19:00-21:00 i klubbens lokal på Kjeller. Vi kommer dessuten holde en Refresh-kurs søndag den 11 mars da eksamensdato for PPL-A er den 16 mars. Det er ... See more

LIKE
LOVE
HAHA
WOW
SAD
ANGRY
Metar/TAF Gardermoen:

ENGM 222120Z 03006KT 8000 -FZRA BKN003 M01/M01 Q0989 TEMPO FZRA BKN008

TAF ENGM 221700Z 2218/2318 05008KT 7000 -SN SCT004 OVC018 TEMPO 2218/2301 1200 SN BR VV004 PROB40 2219/2301 FZRA BECMG 2301/2303 18012KT RA TEMPO 2301/2318 19018G28KT 4000 -RADZ BR OVC008